Time;durP1;ratioP1;P1;durP2;ratioP2;P2;SDS_P1;SDS_P2;PMS_P1;PMS_P2;Temp;Humidity;BMP_temperature;BMP_pressure;BME280_temperature;BME280_humidity;BME280_pressure;Samples;Min_cycle;Max_cycle;Signal;HPM_P1;HPM_P2
2023/08/25 00:00:57;;;;;;;9.20;2.85;;;;;;;;;;5052601;28;20071;-51
2023/08/25 00:03:25;;;;;;;7.97;2.90;;;;;;;;;;5055508;28;20041;-54
2023/08/25 00:05:52;;;;;;;6.15;2.58;;;;;;;;;;5068163;28;20052;-50
2023/08/25 00:08:19;;;;;;;5.82;2.80;;;;;;;;;;5053599;28;20465;-54
2023/08/25 00:10:46;;;;;;;7.22;2.67;;;;;;;;;;5051522;28;20094;-54
2023/08/25 00:13:13;;;;;;;5.22;2.40;;;;;;;;;;5053327;28;20138;-53
2023/08/25 00:15:40;;;;;;;8.68;2.35;;;;;;;;;;5053284;28;20051;-51
2023/08/25 00:18:06;;;;;;;6.93;2.42;;;;;;;;;;5060391;28;20413;-54
2023/08/25 00:20:35;;;;;;;6.25;2.10;;;;;;;;;;5051443;28;20049;-52
2023/08/25 00:23:02;;;;;;;6.38;2.33;;;;;;;;;;5052868;28;20088;-54
2023/08/25 00:25:29;;;;;;;8.50;2.40;;;;;;;;;;5053014;28;20045;-55
2023/08/25 00:27:55;;;;;;;7.38;2.60;;;;;;;;;;5061144;28;20041;-56
2023/08/25 00:30:22;;;;;;;6.00;2.50;;;;;;;;;;5053015;28;20041;-56
2023/08/25 00:32:48;;;;;;;6.63;2.67;;;;;;;;;;5056680;28;20041;-54
2023/08/25 00:35:15;;;;;;;7.18;2.60;;;;;;;;;;5052931;28;20472;-54
2023/08/25 00:37:43;;;;;;;6.50;2.55;;;;;;;;;;5056374;28;20102;-57
2023/08/25 00:40:11;;;;;;;5.90;2.10;;;;;;;;;;5066448;28;20076;-54
2023/08/25 00:42:37;;;;;;;5.68;3.33;;;;;;;;;;5072815;28;20135;-51
2023/08/25 00:45:05;;;;;;;8.00;2.65;;;;;;;;;;5072957;28;20409;-55
2023/08/25 00:47:32;;;;;;;7.38;3.45;;;;;;;;;;5056779;28;20055;-53
2023/08/25 00:49:59;;;;;;;8.55;2.47;;;;;;;;;;5051992;28;20228;-52
2023/08/25 00:52:27;;;;;;;6.15;2.50;;;;;;;;;;5046175;28;20136;-55
2023/08/25 00:54:56;;;;;;;8.45;2.90;;;;;;;;;;5052683;28;20056;-54
2023/08/25 00:57:23;;;;;;;7.47;2.40;;;;;;;;;;5052520;28;20078;-52
2023/08/25 00:59:51;;;;;;;5.53;2.30;;;;;;;;;;5050866;28;20487;-52
2023/08/25 01:02:18;;;;;;;5.85;1.98;;;;;;;;;;5048368;28;20387;-56
2023/08/25 01:04:45;;;;;;;6.95;2.30;;;;;;;;;;5052598;28;20055;-52
2023/08/25 01:07:12;;;;;;;6.82;2.70;;;;;;;;;;5052184;28;20059;-56
2023/08/25 01:09:39;;;;;;;8.35;2.70;;;;;;;;;;5055914;28;20135;-51
2023/08/25 01:12:17;;;;;;;6.32;2.92;;;;;;;;;;5051428;28;20044;-53
2023/08/25 01:14:51;;;;;;;5.43;2.53;;;;;;;;;;5051754;28;20055;-53
2023/08/25 01:17:24;;;;;;;6.43;2.35;;;;;;;;;;5052367;28;20044;-56
2023/08/25 01:19:55;;;;;;;6.60;2.40;;;;;;;;;;5060034;28;20137;-53
2023/08/25 01:22:28;;;;;;;4.68;2.25;;;;;;;;;;5069787;28;20048;-52
2023/08/25 01:25:03;;;;;;;6.95;2.45;;;;;;;;;;5072005;28;20049;-56
2023/08/25 01:27:31;;;;;;;6.63;2.60;;;;;;;;;;5072356;28;20409;-54
2023/08/25 01:29:58;;;;;;;5.38;2.10;;;;;;;;;;5061452;28;20132;-54
2023/08/25 01:32:25;;;;;;;5.45;2.03;;;;;;;;;;5052208;28;20061;-57
2023/08/25 01:34:51;;;;;;;5.15;2.72;;;;;;;;;;5051920;28;20045;-56
2023/08/25 01:37:22;;;;;;;5.38;2.42;;;;;;;;;;5050671;28;20445;-49
2023/08/25 01:39:54;;;;;;;6.18;2.88;;;;;;;;;;5050277;28;20072;-53
2023/08/25 01:42:24;;;;;;;6.68;2.50;;;;;;;;;;5048833;28;20095;-49
2023/08/25 01:44:53;;;;;;;5.68;2.70;;;;;;;;;;5043769;28;20055;-49
2023/08/25 01:47:23;;;;;;;6.55;2.53;;;;;;;;;;5051943;28;20048;-53
2023/08/25 01:49:51;;;;;;;8.82;2.80;;;;;;;;;;5053783;28;20045;-55
2023/08/25 01:52:18;;;;;;;7.47;2.88;;;;;;;;;;5056929;28;20047;-54
2023/08/25 01:54:44;;;;;;;6.45;2.30;;;;;;;;;;5045551;28;20481;-55
2023/08/25 01:57:11;;;;;;;6.25;2.50;;;;;;;;;;5051238;28;20133;-54
2023/08/25 01:59:38;;;;;;;3.90;2.20;;;;;;;;;;5051593;28;20059;-56
2023/08/25 02:02:06;;;;;;;6.10;2.55;;;;;;;;;;5052341;28;20045;-55
2023/08/25 02:04:32;;;;;;;5.45;2.63;;;;;;;;;;5051350;28;20546;-52
2023/08/25 02:06:59;;;;;;;6.72;3.00;;;;;;;;;;5051594;28;20490;-54
2023/08/25 02:09:26;;;;;;;5.60;2.28;;;;;;;;;;5061640;28;20128;-56
2023/08/25 02:11:52;;;;;;;5.70;2.95;;;;;;;;;;5052981;28;20053;-53
2023/08/25 02:14:19;;;;;;;5.18;2.60;;;;;;;;;;5049399;28;20127;-53
2023/08/25 02:16:46;;;;;;;6.22;2.67;;;;;;;;;;5052453;28;20041;-51
2023/08/25 02:19:14;;;;;;;5.50;2.55;;;;;;;;;;5045650;28;20037;-54
2023/08/25 02:21:40;;;;;;;5.90;2.92;;;;;;;;;;5049843;28;20124;-49
2023/08/25 02:24:07;;;;;;;6.55;2.78;;;;;;;;;;5051089;28;20037;-51
2023/08/25 02:26:33;;;;;;;5.40;2.70;;;;;;;;;;5055141;28;20040;-54
2023/08/25 02:29:00;;;;;;;6.53;3.10;;;;;;;;;;5055349;28;20482;-55
2023/08/25 02:31:27;;;;;;;4.85;2.65;;;;;;;;;;5054565;28;20170;-58
2023/08/25 02:33:53;;;;;;;6.30;2.55;;;;;;;;;;5055523;28;20417;-53
2023/08/25 02:36:21;;;;;;;5.93;2.50;;;;;;;;;;5054574;28;20048;-56
2023/08/25 02:38:48;;;;;;;4.43;2.33;;;;;;;;;;5054636;28;20144;-56
2023/08/25 02:41:14;;;;;;;6.60;3.10;;;;;;;;;;5054943;28;20440;-55
2023/08/25 02:43:41;;;;;;;4.43;2.78;;;;;;;;;;5054334;28;20397;-55
2023/08/25 02:46:07;;;;;;;4.28;2.38;;;;;;;;;;5062017;28;20055;-53
2023/08/25 02:48:34;;;;;;;5.63;2.58;;;;;;;;;;5075013;28;20053;-55
2023/08/25 02:51:01;;;;;;;3.92;1.95;;;;;;;;;;5060721;28;20049;-54
2023/08/25 02:53:29;;;;;;;5.55;2.80;;;;;;;;;;5054977;28;20409;-55
2023/08/25 02:55:55;;;;;;;4.70;2.30;;;;;;;;;;5054693;28;20140;-55
2023/08/25 02:58:22;;;;;;;6.13;2.60;;;;;;;;;;5054460;28;20132;-53
2023/08/25 03:00:49;;;;;;;5.35;2.42;;;;;;;;;;5054446;28;20127;-50
2023/08/25 03:03:15;;;;;;;5.25;2.85;;;;;;;;;;5068711;28;20059;-51
2023/08/25 03:05:42;;;;;;;4.93;2.03;;;;;;;;;;5074837;28;20416;-52
2023/08/25 03:08:12;;;;;;;5.30;2.08;;;;;;;;;;5074766;28;20515;-53
2023/08/25 03:10:43;;;;;;;4.63;2.45;;;;;;;;;;5074480;28;20482;-51
2023/08/25 03:13:10;;;;;;;10.18;2.42;;;;;;;;;;5074466;28;20136;-51
2023/08/25 03:15:37;;;;;;;4.13;1.92;;;;;;;;;;5074119;28;20053;-53
2023/08/25 03:18:04;;;;;;;5.45;2.35;;;;;;;;;;5074576;28;20062;-53
2023/08/25 03:20:30;;;;;;;4.63;2.10;;;;;;;;;;5074210;28;20049;-51
2023/08/25 03:22:57;;;;;;;4.43;2.38;;;;;;;;;;5074250;28;20047;-50
2023/08/25 03:25:24;;;;;;;5.13;2.28;;;;;;;;;;5074361;28;20478;-51
2023/08/25 03:27:52;;;;;;;4.57;2.05;;;;;;;;;;5074233;28;20044;-51
2023/08/25 03:30:18;;;;;;;4.38;2.25;;;;;;;;;;5073792;28;20052;-56
2023/08/25 03:32:45;;;;;;;4.47;2.00;;;;;;;;;;5073946;28;20064;-58
2023/08/25 03:35:11;;;;;;;5.38;2.13;;;;;;;;;;5073539;28;20059;-53
2023/08/25 03:37:38;;;;;;;4.00;2.00;;;;;;;;;;5074031;28;20132;-54
2023/08/25 03:40:05;;;;;;;4.03;2.00;;;;;;;;;;5056771;28;20133;-55
2023/08/25 03:42:32;;;;;;;4.20;2.10;;;;;;;;;;5053823;28;20498;-55
2023/08/25 03:45:00;;;;;;;5.35;2.08;;;;;;;;;;5054113;28;20378;-50
2023/08/25 03:47:26;;;;;;;4.45;2.10;;;;;;;;;;5053782;28;20398;-55
2023/08/25 03:49:53;;;;;;;4.50;2.00;;;;;;;;;;5052864;28;20379;-53
2023/08/25 03:52:20;;;;;;;3.97;2.17;;;;;;;;;;5053143;28;20077;-55
2023/08/25 03:54:47;;;;;;;3.60;1.98;;;;;;;;;;5056236;28;20058;-54
2023/08/25 03:57:13;;;;;;;4.07;2.10;;;;;;;;;;5053308;28;20062;-56
2023/08/25 03:59:40;;;;;;;4.97;2.20;;;;;;;;;;5053616;28;20041;-50
2023/08/25 04:02:08;;;;;;;4.32;2.28;;;;;;;;;;5048490;28;20042;-53
2023/08/25 04:04:34;;;;;;;4.15;2.00;;;;;;;;;;5051055;28;20167;-57
2023/08/25 04:07:01;;;;;;;5.15;1.88;;;;;;;;;;5053513;28;20045;-55
2023/08/25 04:09:28;;;;;;;4.20;2.00;;;;;;;;;;5053437;28;20051;-53
2023/08/25 04:11:55;;;;;;;3.70;1.98;;;;;;;;;;5053341;28;20053;-52
2023/08/25 04:14:22;;;;;;;6.05;2.55;;;;;;;;;;5052830;28;20084;-54
2023/08/25 04:16:51;;;;;;;4.18;2.00;;;;;;;;;;5109347;22;20052;-83
2023/08/25 04:19:29;;;;;;;3.65;2.00;;;;;;;;;;5099137;28;20051;-84
2023/08/25 04:22:03;;;;;;;4.18;2.10;;;;;;;;;;5099927;28;20079;-84
2023/08/25 04:24:30;;;;;;;4.63;2.17;;;;;;;;;;5096675;28;20051;-83
2023/08/25 04:26:58;;;;;;;4.75;2.47;;;;;;;;;;5088324;28;20047;-83
2023/08/25 04:29:39;;;;;;;4.20;2.42;;;;;;;;;;5095928;28;20079;-84
2023/08/25 04:32:12;;;;;;;5.07;2.15;;;;;;;;;;5082324;28;20048;-85
2023/08/25 04:34:46;;;;;;;5.28;2.10;;;;;;;;;;5080184;28;20063;-82
2023/08/25 04:37:19;;;;;;;4.95;2.90;;;;;;;;;;5076681;28;20041;-84
2023/08/25 04:39:46;;;;;;;4.47;2.00;;;;;;;;;;5080400;28;20048;-84
2023/08/25 04:42:17;;;;;;;3.17;2.17;;;;;;;;;;5082797;28;20047;-84
2023/08/25 04:44:50;;;;;;;4.00;2.08;;;;;;;;;;5083109;28;20045;-85
2023/08/25 04:47:19;;;;;;;4.63;1.80;;;;;;;;;;5082817;28;20059;-85
2023/08/25 04:50:02;;;;;;;3.33;1.48;;;;;;;;;;5082607;28;20074;-84
2023/08/25 04:52:39;;;;;;;3.40;1.58;;;;;;;;;;5083632;28;20321;-85
2023/08/25 04:55:15;;;;;;;3.95;1.80;;;;;;;;;;5083272;28;20048;-85
2023/08/25 04:57:45;;;;;;;3.67;1.80;;;;;;;;;;5083540;28;20120;-85
2023/08/25 05:00:23;;;;;;;4.95;2.63;;;;;;;;;;5083127;28;20044;-84
2023/08/25 05:02:51;;;;;;;4.78;2.60;;;;;;;;;;5083432;28;20078;-85
2023/08/25 05:05:23;;;;;;;3.10;2.15;;;;;;;;;;5082931;28;20103;-85
2023/08/25 05:07:50;;;;;;;3.88;2.22;;;;;;;;;;5083567;28;20055;-84
2023/08/25 05:10:20;;;;;;;4.75;2.38;;;;;;;;;;5081535;28;20118;-84
2023/08/25 05:12:51;;;;;;;4.55;2.47;;;;;;;;;;5084183;28;20415;-83
2023/08/25 05:15:23;;;;;;;4.45;2.42;;;;;;;;;;5083203;28;20072;-84
2023/08/25 05:17:52;;;;;;;4.18;2.40;;;;;;;;;;5083666;28;20426;-84
2023/08/25 05:20:35;;;;;;;5.73;2.80;;;;;;;;;;5086992;28;20085;-85
2023/08/25 05:23:18;;;;;;;5.28;2.78;;;;;;;;;;5089126;28;20104;-82
2023/08/25 05:25:49;;;;;;;4.82;2.08;;;;;;;;;;5097449;28;20055;-83
2023/08/25 05:28:23;;;;;;;3.47;1.95;;;;;;;;;;5097530;28;20036;-81
2023/08/25 05:31:01;;;;;;;4.05;1.80;;;;;;;;;;5094930;28;20062;-84
2023/08/25 05:33:32;;;;;;;3.45;1.95;;;;;;;;;;5071336;28;20051;-84
2023/08/25 05:36:03;;;;;;;4.57;2.10;;;;;;;;;;5081583;28;20044;-84
2023/08/25 05:38:36;;;;;;;5.50;2.05;;;;;;;;;;5080991;28;20072;-84
2023/08/25 05:41:15;;;;;;;4.57;2.08;;;;;;;;;;5071929;28;20403;-84
2023/08/25 05:43:44;;;;;;;3.57;1.80;;;;;;;;;;5081754;28;20068;-84
2023/08/25 05:46:18;;;;;;;6.93;2.00;;;;;;;;;;5081270;28;20049;-86
2023/08/25 05:48:51;;;;;;;5.03;2.08;;;;;;;;;;5082395;28;20078;-85
2023/08/25 05:51:23;;;;;;;3.33;2.13;;;;;;;;;;5076988;28;20049;-85
2023/08/25 05:54:04;;;;;;;4.85;2.00;;;;;;;;;;5090992;28;20048;-84
2023/08/25 05:56:36;;;;;;;4.32;2.22;;;;;;;;;;5077800;28;20075;-84
2023/08/25 05:59:03;;;;;;;6.25;2.55;;;;;;;;;;5079582;28;20044;-85
2023/08/25 06:01:29;;;;;;;5.53;1.90;;;;;;;;;;5074352;28;20159;-86
2023/08/25 06:03:56;;;;;;;4.57;2.25;;;;;;;;;;5069585;28;20078;-84
2023/08/25 06:06:24;;;;;;;3.97;2.00;;;;;;;;;;5080165;28;20052;-84
2023/08/25 06:08:51;;;;;;;4.47;2.20;;;;;;;;;;5077010;28;20037;-84
2023/08/25 06:11:17;;;;;;;3.60;2.00;;;;;;;;;;5081894;28;20045;-84
2023/08/25 06:13:45;;;;;;;4.68;2.00;;;;;;;;;;5083194;28;20056;-84
2023/08/25 06:16:11;;;;;;;3.42;1.70;;;;;;;;;;5081978;28;20135;-85
2023/08/25 06:18:38;;;;;;;5.43;2.10;;;;;;;;;;5083381;28;20056;-85
2023/08/25 06:21:04;;;;;;;5.20;2.05;;;;;;;;;;5081987;28;20052;-86
2023/08/25 06:23:32;;;;;;;5.00;2.10;;;;;;;;;;5082849;28;20045;-85
2023/08/25 06:25:59;;;;;;;3.92;2.53;;;;;;;;;;5083117;28;20044;-84
2023/08/25 06:28:26;;;;;;;5.70;2.95;;;;;;;;;;5083715;28;20048;-85
2023/08/25 06:30:53;;;;;;;5.38;3.25;;;;;;;;;;5082467;28;20054;-84
2023/08/25 06:33:19;;;;;;;6.30;3.22;;;;;;;;;;5083903;28;20429;-85
2023/08/25 06:35:46;;;;;;;4.85;3.60;;;;;;;;;;5083806;28;20048;-85
2023/08/25 06:38:13;;;;;;;4.75;2.25;;;;;;;;;;5083876;28;20076;-84
2023/08/25 06:40:41;;;;;;;3.85;2.30;;;;;;;;;;5082954;28;20045;-85
2023/08/25 06:43:08;;;;;;;3.58;1.90;;;;;;;;;;5084194;28;20131;-85
2023/08/25 06:45:34;;;;;;;3.78;1.90;;;;;;;;;;5086394;28;20044;-85
2023/08/25 06:48:01;;;;;;;4.60;2.22;;;;;;;;;;5086795;28;20294;-85
2023/08/25 06:50:28;;;;;;;6.97;3.80;;;;;;;;;;5080084;28;20541;-84
2023/08/25 06:52:54;;;;;;;4.57;2.70;;;;;;;;;;5081312;28;20045;-84
2023/08/25 06:55:21;;;;;;;5.20;2.58;;;;;;;;;;5079692;28;20080;-85
2023/08/25 06:57:49;;;;;;;4.30;2.22;;;;;;;;;;5076851;28;20048;-84
2023/08/25 07:00:17;;;;;;;4.97;2.75;;;;;;;;;;5079952;28;20141;-86
2023/08/25 07:02:44;;;;;;;5.68;2.53;;;;;;;;;;5070645;28;20052;-84
2023/08/25 07:05:13;;;;;;;5.82;3.30;;;;;;;;;;5076731;28;20052;-82
2023/08/25 07:07:42;;;;;;;6.33;3.43;;;;;;;;;;5090076;28;20044;-84
2023/08/25 07:10:09;;;;;;;4.35;2.75;;;;;;;;;;5096337;28;20044;-83
2023/08/25 07:12:36;;;;;;;6.38;3.20;;;;;;;;;;5095242;28;20040;-83
2023/08/25 07:15:04;;;;;;;3.80;2.47;;;;;;;;;;5095711;28;20175;-82
2023/08/25 07:17:31;;;;;;;5.85;3.25;;;;;;;;;;5089476;28;20040;-84
2023/08/25 07:19:58;;;;;;;4.00;2.25;;;;;;;;;;5079481;28;20049;-84
2023/08/25 07:22:25;;;;;;;4.70;2.67;;;;;;;;;;5079016;28;20501;-87
2023/08/25 07:24:53;;;;;;;3.80;2.10;;;;;;;;;;5075067;28;20097;-85
2023/08/25 07:27:19;;;;;;;3.67;2.28;;;;;;;;;;5077038;28;20507;-84
2023/08/25 07:29:46;;;;;;;4.50;2.22;;;;;;;;;;5072839;28;20390;-84
2023/08/25 07:32:14;;;;;;;5.63;2.85;;;;;;;;;;5078580;28;20036;-85
2023/08/25 07:34:46;;;;;;;4.60;2.47;;;;;;;;;;5077876;28;20420;-80
2023/08/25 07:37:12;;;;;;;5.43;2.83;;;;;;;;;;5076448;28;20047;-85
2023/08/25 07:39:40;;;;;;;4.72;2.03;;;;;;;;;;5080077;28;20111;-86
2023/08/25 07:42:07;;;;;;;3.70;2.10;;;;;;;;;;5077481;28;20144;-85
2023/08/25 07:44:33;;;;;;;3.83;1.83;;;;;;;;;;5079352;28;20115;-85
2023/08/25 07:47:00;;;;;;;4.32;1.90;;;;;;;;;;5077034;28;20124;-85
2023/08/25 07:49:28;;;;;;;4.57;2.22;;;;;;;;;;5077894;28;20471;-84
2023/08/25 07:51:54;;;;;;;3.97;2.28;;;;;;;;;;5075568;28;20123;-84
2023/08/25 07:54:21;;;;;;;4.85;2.70;;;;;;;;;;5078536;28;20051;-84
2023/08/25 07:56:48;;;;;;;4.20;2.40;;;;;;;;;;5080185;28;20079;-85
2023/08/25 07:59:15;;;;;;;3.97;2.10;;;;;;;;;;5074170;28;20041;-84
2023/08/25 08:01:42;;;;;;;3.72;2.00;;;;;;;;;;5074982;28;20584;-83
2023/08/25 08:04:09;;;;;;;4.72;2.25;;;;;;;;;;5078452;28;20048;-85
2023/08/25 08:06:38;;;;;;;4.60;2.50;;;;;;;;;;5080499;28;20045;-84
2023/08/25 08:09:06;;;;;;;5.38;2.83;;;;;;;;;;5081242;28;20101;-85
2023/08/25 08:11:33;;;;;;;6.80;2.83;;;;;;;;;;5080207;28;20036;-84
2023/08/25 08:14:00;;;;;;;5.05;3.15;;;;;;;;;;5087852;28;20112;-84
2023/08/25 08:16:26;;;;;;;4.18;2.35;;;;;;;;;;5084909;28;20051;-83
2023/08/25 08:18:53;;;;;;;6.00;2.78;;;;;;;;;;5081551;28;20113;-85
2023/08/25 08:21:20;;;;;;;5.18;2.92;;;;;;;;;;5080154;28;20044;-84
2023/08/25 08:23:48;;;;;;;5.35;3.38;;;;;;;;;;5077583;28;20048;-85
2023/08/25 08:26:15;;;;;;;6.70;3.20;;;;;;;;;;5071298;28;20063;-84
2023/08/25 08:28:41;;;;;;;4.68;2.78;;;;;;;;;;5078901;28;20075;-82
2023/08/25 08:31:08;;;;;;;4.18;2.50;;;;;;;;;;5080104;28;20589;-85
2023/08/25 08:33:35;;;;;;;3.80;2.63;;;;;;;;;;5082362;28;20044;-85
2023/08/25 08:36:02;;;;;;;5.03;2.50;;;;;;;;;;5081646;28;20089;-84
2023/08/25 08:38:29;;;;;;;6.15;2.80;;;;;;;;;;5081303;28;20044;-85
2023/08/25 08:41:03;;;;;;;5.18;2.85;;;;;;;;;;5074914;28;20072;-86
2023/08/25 08:43:38;;;;;;;5.55;3.15;;;;;;;;;;5077703;28;20036;-87
2023/08/25 08:46:05;;;;;;;5.15;2.70;;;;;;;;;;5076582;28;20048;-84
2023/08/25 08:48:33;;;;;;;4.95;2.28;;;;;;;;;;5074095;28;20071;-84
2023/08/25 08:51:01;;;;;;;5.43;2.58;;;;;;;;;;5083783;28;20565;-83
2023/08/25 08:53:27;;;;;;;4.53;2.42;;;;;;;;;;5082680;28;20105;-83
2023/08/25 08:55:55;;;;;;;4.65;2.70;;;;;;;;;;5084809;28;20087;-84
2023/08/25 08:58:23;;;;;;;5.50;2.83;;;;;;;;;;5086736;28;20047;-84
2023/08/25 09:00:52;;;;;;;5.22;2.70;;;;;;;;;;5080695;28;20068;-83
2023/08/25 09:03:21;;;;;;;4.35;2.85;;;;;;;;;;5076515;28;20041;-84
2023/08/25 09:05:48;;;;;;;7.18;2.97;;;;;;;;;;5076191;28;20049;-84
2023/08/25 09:08:17;;;;;;;5.85;3.13;;;;;;;;;;5075319;28;20042;-84
2023/08/25 09:10:43;;;;;;;5.07;3.08;;;;;;;;;;5074579;28;20064;-85
2023/08/25 09:13:10;;;;;;;6.30;3.42;;;;;;;;;;5075161;28;20047;-83
2023/08/25 09:15:39;;;;;;;6.88;3.28;;;;;;;;;;5081045;28;20048;-85
2023/08/25 09:18:10;;;;;;;11.32;5.30;;;;;;;;;;5087221;28;20119;-85
2023/08/25 09:23:21;;;;;;;7.15;3.42;;;;;;;;;;5076525;28;20056;-87
2023/08/25 09:25:48;;;;;;;6.55;3.45;;;;;;;;;;5072584;28;20086;-83
2023/08/25 09:28:15;;;;;;;7.70;3.67;;;;;;;;;;5076801;28;20047;-83
2023/08/25 09:30:44;;;;;;;10.25;5.07;;;;;;;;;;5076931;28;20443;-81
2023/08/25 09:33:14;;;;;;;6.43;3.63;;;;;;;;;;5075711;28;20107;-84
2023/08/25 09:35:40;;;;;;;5.40;3.47;;;;;;;;;;5073526;28;20068;-83
2023/08/25 09:38:08;;;;;;;5.93;3.47;;;;;;;;;;5076120;28;20052;-83
2023/08/25 09:40:35;;;;;;;6.78;4.05;;;;;;;;;;5076334;28;20044;-84
2023/08/25 09:43:03;;;;;;;6.80;3.42;;;;;;;;;;5075507;28;20047;-84
2023/08/25 09:45:32;;;;;;;5.85;3.30;;;;;;;;;;5076150;28;20046;-83
2023/08/25 09:48:08;;;;;;;6.03;3.38;;;;;;;;;;5077676;28;20127;-83
2023/08/25 09:50:39;;;;;;;5.35;3.63;;;;;;;;;;5073415;28;20140;-85
2023/08/25 09:53:07;;;;;;;11.50;4.85;;;;;;;;;;5069644;28;20048;-83
2023/08/25 09:55:35;;;;;;;6.10;3.53;;;;;;;;;;5075242;28;20058;-83
2023/08/25 09:58:03;;;;;;;6.78;3.78;;;;;;;;;;5072637;28;20040;-84
2023/08/25 10:00:30;;;;;;;5.22;3.60;;;;;;;;;;5071079;28;20045;-82
2023/08/25 10:02:57;;;;;;;5.13;3.28;;;;;;;;;;5070697;28;20415;-82
2023/08/25 10:05:25;;;;;;;5.13;3.25;;;;;;;;;;5071329;28;20044;-82
2023/08/25 10:07:52;;;;;;;6.78;3.67;;;;;;;;;;5086237;28;20060;-81
2023/08/25 10:10:21;;;;;;;7.95;3.40;;;;;;;;;;5090280;28;20033;-81
2023/08/25 10:12:48;;;;;;;5.93;3.65;;;;;;;;;;5074555;28;20056;-81
2023/08/25 10:15:17;;;;;;;5.70;3.10;;;;;;;;;;5078366;28;20044;-84
2023/08/25 10:17:44;;;;;;;5.90;3.35;;;;;;;;;;5075279;28;20048;-84
2023/08/25 10:20:14;;;;;;;5.95;3.33;;;;;;;;;;5069252;28;20037;-84
2023/08/25 10:27:11;;;;;;;6.93;3.63;;;;;;;;;;5017911;28;20065;-84
2023/08/25 10:30:27;;;;;;;6.57;3.10;;;;;;;;;;5089150;28;20051;-84
2023/08/25 10:32:57;;;;;;;4.65;2.90;;;;;;;;;;5097195;22;20119;-58
2023/08/25 10:35:48;;;;;;;6.82;2.85;;;;;;;;;;5081736;28;20052;-56
2023/08/25 10:38:36;;;;;;;6.65;3.08;;;;;;;;;;5064721;28;20048;-56
2023/08/25 10:41:14;;;;;;;4.88;2.60;;;;;;;;;;5083818;28;20052;-56
2023/08/25 10:43:42;;;;;;;5.30;2.78;;;;;;;;;;5086075;28;20048;-54
2023/08/25 10:46:10;;;;;;;4.15;2.53;;;;;;;;;;5092432;28;20044;-55
2023/08/25 10:48:38;;;;;;;4.75;2.78;;;;;;;;;;5092804;28;20048;-56
2023/08/25 10:51:09;;;;;;;4.85;2.83;;;;;;;;;;5092229;28;20101;-54
2023/08/25 10:53:37;;;;;;;5.82;3.35;;;;;;;;;;5092151;28;20417;-58
2023/08/25 10:56:15;;;;;;;5.18;3.00;;;;;;;;;;5088225;28;20044;-60
2023/08/25 10:58:42;;;;;;;6.53;3.35;;;;;;;;;;5091255;28;20259;-59
2023/08/25 11:01:14;;;;;;;5.72;2.95;;;;;;;;;;5088473;28;20530;-55
2023/08/25 11:03:48;;;;;;;7.70;3.20;;;;;;;;;;5092291;28;20624;-55
2023/08/25 11:06:43;;;;;;;7.85;3.53;;;;;;;;;;5091358;28;20052;-57
2023/08/25 11:09:11;;;;;;;6.03;3.40;;;;;;;;;;5091943;28;20051;-58
2023/08/25 11:11:38;;;;;;;5.72;3.38;;;;;;;;;;5091928;28;20040;-58
2023/08/25 11:14:05;;;;;;;4.68;2.70;;;;;;;;;;5091965;28;20564;-56
2023/08/25 11:16:33;;;;;;;6.53;3.10;;;;;;;;;;5091472;28;20048;-59
2023/08/25 11:18:59;;;;;;;5.72;3.08;;;;;;;;;;5095171;28;20032;-62
2023/08/25 11:24:29;;;;;;;4.95;3.00;;;;;;;;;;5087561;28;20089;-53
2023/08/25 11:26:56;;;;;;;4.78;2.72;;;;;;;;;;5092509;28;20040;-55
2023/08/25 11:29:23;;;;;;;5.72;3.30;;;;;;;;;;5090099;28;20492;-55
2023/08/25 11:31:51;;;;;;;4.95;3.47;;;;;;;;;;5085336;28;20047;-58
2023/08/25 11:34:17;;;;;;;5.40;3.45;;;;;;;;;;5090885;28;20430;-57
2023/08/25 11:36:44;;;;;;;5.32;3.10;;;;;;;;;;5088191;28;20063;-55
2023/08/25 11:39:18;;;;;;;5.25;2.78;;;;;;;;;;5089667;28;20036;-56
2023/08/25 11:41:44;;;;;;;6.88;2.83;;;;;;;;;;5083944;28;20044;-59
2023/08/25 11:44:11;;;;;;;4.38;2.88;;;;;;;;;;5085819;28;20415;-58
2023/08/25 11:46:38;;;;;;;4.78;2.70;;;;;;;;;;5088384;28;20048;-53
2023/08/25 11:49:08;;;;;;;5.38;3.03;;;;;;;;;;5089029;28;20036;-60
2023/08/25 11:51:36;;;;;;;5.68;3.30;;;;;;;;;;5086900;28;20040;-61
2023/08/25 11:54:03;;;;;;;4.90;2.78;;;;;;;;;;5090808;28;20048;-59
2023/08/25 11:56:29;;;;;;;4.75;2.90;;;;;;;;;;5090705;28;20053;-59
2023/08/25 11:58:56;;;;;;;6.43;3.20;;;;;;;;;;5090617;28;20155;-61
2023/08/25 12:01:23;;;;;;;5.45;3.60;;;;;;;;;;5088016;28;20047;-61
2023/08/25 12:03:49;;;;;;;5.00;3.42;;;;;;;;;;5090928;28;20052;-60
2023/08/25 12:06:17;;;;;;;6.70;3.40;;;;;;;;;;5093794;28;20050;-63
2023/08/25 12:08:44;;;;;;;5.47;3.33;;;;;;;;;;5087917;28;20052;-54
2023/08/25 12:11:11;;;;;;;5.95;3.47;;;;;;;;;;5087569;28;20044;-56
2023/08/25 12:13:42;;;;;;;5.80;3.17;;;;;;;;;;5089557;28;20041;-58
2023/08/25 12:16:12;;;;;;;4.95;2.90;;;;;;;;;;5087830;28;20044;-57
2023/08/25 12:18:39;;;;;;;;;;;;;;;;;;5088422;28;20053;-56
2023/08/25 12:21:07;;;;;;;6.13;3.08;;;;;;;;;;5088779;28;20432;-56
2023/08/25 12:23:37;;;;;;;5.88;3.38;;;;;;;;;;5090349;28;20531;-56
2023/08/25 12:26:04;;;;;;;5.80;3.20;;;;;;;;;;5090501;28;20040;-56
2023/08/25 12:28:31;;;;;;;4.43;2.83;;;;;;;;;;5089294;28;20168;-54
2023/08/25 12:30:59;;;;;;;5.78;3.67;;;;;;;;;;5087330;28;20185;-54
2023/08/25 12:33:25;;;;;;;5.03;3.05;;;;;;;;;;5090165;28;20044;-56
2023/08/25 12:35:52;;;;;;;5.00;3.17;;;;;;;;;;5088753;28;20145;-62
2023/08/25 12:38:19;;;;;;;4.95;3.40;;;;;;;;;;5089988;28;20093;-62
2023/08/25 12:40:47;;;;;;;5.72;3.42;;;;;;;;;;5087670;28;20048;-57
2023/08/25 12:43:13;;;;;;;6.50;3.50;;;;;;;;;;5088241;28;20040;-59
2023/08/25 12:45:40;;;;;;;5.93;3.60;;;;;;;;;;5085278;28;20048;-56
2023/08/25 12:48:08;;;;;;;5.93;3.45;;;;;;;;;;5085297;28;20044;-58
2023/08/25 12:50:35;;;;;;;4.38;3.22;;;;;;;;;;5079467;28;20447;-58
2023/08/25 12:53:01;;;;;;;5.70;3.42;;;;;;;;;;5084381;28;20066;-57
2023/08/25 12:55:28;;;;;;;5.90;3.28;;;;;;;;;;5087557;28;20127;-59
2023/08/25 12:57:56;;;;;;;6.95;3.50;;;;;;;;;;5081708;28;20063;-59
2023/08/25 13:00:22;;;;;;;4.60;3.20;;;;;;;;;;5084786;28;20040;-57
2023/08/25 13:02:49;;;;;;;5.75;3.72;;;;;;;;;;5085176;28;20051;-59
2023/08/25 13:05:16;;;;;;;6.57;3.38;;;;;;;;;;5087471;28;20047;-58
2023/08/25 13:07:42;;;;;;;4.47;3.10;;;;;;;;;;5089009;28;20051;-57
2023/08/25 13:10:09;;;;;;;6.57;3.70;;;;;;;;;;5082832;28;20396;-59
2023/08/25 13:12:36;;;;;;;6.05;3.80;;;;;;;;;;5088336;28;20469;-59
2023/08/25 13:15:07;;;;;;;5.63;3.63;;;;;;;;;;5085778;28;20146;-58
2023/08/25 13:17:34;;;;;;;6.55;4.03;;;;;;;;;;5089509;28;20040;-59
2023/08/25 13:20:00;;;;;;;8.00;3.85;;;;;;;;;;5089691;28;20075;-58
2023/08/25 13:22:27;;;;;;;6.90;3.78;;;;;;;;;;5089847;28;20036;-57
2023/08/25 13:24:53;;;;;;;5.35;3.45;;;;;;;;;;5084449;28;20044;-58
2023/08/25 13:27:21;;;;;;;8.65;4.03;;;;;;;;;;5089008;28;20040;-59
2023/08/25 13:29:48;;;;;;;4.78;3.42;;;;;;;;;;5089684;28;20040;-58
2023/08/25 13:32:17;;;;;;;6.82;3.78;;;;;;;;;;5086602;28;20040;-57
2023/08/25 13:34:43;;;;;;;7.90;3.87;;;;;;;;;;5089129;28;20081;-57
2023/08/25 13:37:10;;;;;;;7.03;4.00;;;;;;;;;;5086644;28;20047;-57
2023/08/25 13:39:38;;;;;;;6.97;4.05;;;;;;;;;;5086135;28;20059;-58
2023/08/25 13:42:06;;;;;;;7.40;3.92;;;;;;;;;;5083524;28;20063;-58
2023/08/25 13:44:33;;;;;;;6.53;3.67;;;;;;;;;;5089453;28;20406;-58
2023/08/25 13:46:59;;;;;;;5.45;3.75;;;;;;;;;;5088881;28;20444;-55
2023/08/25 13:49:27;;;;;;;6.82;4.00;;;;;;;;;;5089401;28;20591;-58
2023/08/25 13:51:54;;;;;;;5.80;4.13;;;;;;;;;;5088706;28;20435;-57
2023/08/25 13:54:20;;;;;;;5.45;3.55;;;;;;;;;;5088915;28;20816;-57
2023/08/25 13:56:47;;;;;;;5.72;3.70;;;;;;;;;;5088841;28;20412;-55
2023/08/25 13:59:14;;;;;;;6.60;4.10;;;;;;;;;;5089229;28;20040;-59
2023/08/25 14:01:40;;;;;;;5.95;3.78;;;;;;;;;;5088617;28;20085;-58
2023/08/25 14:04:08;;;;;;;6.40;3.78;;;;;;;;;;5088743;28;20044;-60
2023/08/25 14:06:36;;;;;;;4.50;3.50;;;;;;;;;;5086645;28;20047;-59
2023/08/25 14:09:04;;;;;;;5.80;3.85;;;;;;;;;;5088975;28;20048;-59
2023/08/25 14:11:31;;;;;;;6.57;3.97;;;;;;;;;;5088498;28;20567;-59
2023/08/25 14:13:58;;;;;;;6.45;3.63;;;;;;;;;;5088721;28;20055;-59
2023/08/25 14:16:25;;;;;;;6.97;3.60;;;;;;;;;;5087790;28;20040;-59
2023/08/25 14:18:52;;;;;;;6.78;3.63;;;;;;;;;;5089873;28;20050;-59
2023/08/25 14:21:18;;;;;;;5.43;4.10;;;;;;;;;;5087941;28;20472;-59
2023/08/25 14:23:46;;;;;;;6.75;3.92;;;;;;;;;;5092765;28;20052;-58
2023/08/25 14:26:13;;;;;;;6.05;3.80;;;;;;;;;;5092964;28;20038;-59
2023/08/25 14:28:40;;;;;;;5.63;3.42;;;;;;;;;;5093192;28;20040;-59
2023/08/25 14:31:07;;;;;;;6.47;3.58;;;;;;;;;;5090100;28;20043;-59
2023/08/25 14:33:34;;;;;;;6.05;3.80;;;;;;;;;;5088195;28;20047;-59
2023/08/25 14:36:00;;;;;;;8.18;3.70;;;;;;;;;;5092347;28;20583;-58
2023/08/25 14:38:27;;;;;;;6.93;4.68;;;;;;;;;;5088868;28;20045;-56
2023/08/25 14:40:55;;;;;;;4.72;3.88;;;;;;;;;;5091181;28;20488;-56
2023/08/25 14:43:22;;;;;;;5.45;4.25;;;;;;;;;;5092823;28;20346;-57
2023/08/25 14:45:48;;;;;;;7.47;4.55;;;;;;;;;;5090428;28;20138;-57
2023/08/25 14:48:15;;;;;;;6.47;4.30;;;;;;;;;;5087400;28;20041;-56
2023/08/25 14:50:42;;;;;;;7.60;3.75;;;;;;;;;;5087658;28;20058;-57
2023/08/25 14:53:09;;;;;;;7.57;4.28;;;;;;;;;;5091287;28;20093;-56
2023/08/25 14:55:37;;;;;;;8.35;4.97;;;;;;;;;;5092135;28;20039;-56
2023/08/25 14:58:05;;;;;;;9.80;4.43;;;;;;;;;;5089943;28;20060;-56
2023/08/25 15:00:32;;;;;;;8.10;4.47;;;;;;;;;;5082449;28;20043;-58